El Loa Airport
SCCF : rendu visible

Aérodrome :











RETROUVEZ-NOUS SUR...

 
LOGIN :

S'inscrire | Disclaimer

   EN    FR    IT 

 









Légende :    VFR   VFR Marginal   IFR   IFR Intensif   IFR Très Intensif
Visi : 
Plafond : 
>= 8 km
>= 3000ft
5 à 8 km
1000 à 3000 ft
1500m à 5 km
500 à 1000 ft
800 à 1500m
200 à 500 ft
< 800m
< 200 ft
Symboles :   Orages  Brouillard  Fortes neiges  Fortes précipitations  Vent > 20 kt






- Altitude de l'aérodrome : 7543 ft
- Code IATA : CJC


SCCF - El Loa

DERNIER METAR :
  • 270000Z 25019KT 9999 SCT050 19/09 Q1028

METARs EXPIRÉS :
  • 262300Z 27024KT 9999 FEW060 21/08 Q1026
  • 262200Z 27023KT 9999 FEW060 23/07 Q1025

TAF TAF SCCF
Valide du 27 à 00h jusqu'au 28 à 00h UTC


262223Z 2700/2724 27017KT 9999 SCT050 TN10/2709Z TX26/2719Z
BECMG 2707/2709 09010KT CAVOK
BECMG 2713/2714 20004KT FEW060
BECMG 2716/2718 27020KT
TEMPO 2718/2722 27025G35KT



MET'MAP, la Météo Aéronautique d'un coup d'oeil ! - Copyright ORBIFLY Décembre 2007 - Disclaimer

ORBIFLY MET'MAP TEAM :

Programmation & Développement : Alexandra Zaïnal
Sur une idée originale de : Baudouin d'Aumeries
Assistance à la programmation : Marc-Olivier Méhu
Soutien technique & logistique : Manuel Goepfert

Contact : metmap@orbifly.com




SOURCES & CREDITS :

   NOAA       Earth
Advisory